createdAt,value
2022-11-03T00:01:50.056Z,160880.22
2022-11-03T00:04:54.486Z,160878.91
2022-11-03T00:07:58.410Z,160864.56
2022-11-03T00:11:04.387Z,160860.66
2022-11-03T00:14:10.087Z,160872.44
2022-11-03T00:17:13.716Z,160833.16
2022-11-03T00:20:17.541Z,160834.50
2022-11-03T00:23:21.487Z,160863.25
2022-11-03T00:26:32.825Z,160854.06
2022-11-03T00:29:36.718Z,160867.16
2022-11-03T00:32:40.510Z,160858.00
2022-11-03T00:35:44.660Z,160847.59
2022-11-03T00:38:48.833Z,160835.81
2022-11-03T00:41:53.806Z,160837.09
2022-11-03T00:44:57.744Z,160839.75
2022-11-03T00:48:20.091Z,160829.25
2022-11-03T00:51:27.161Z,160813.59
2022-11-03T00:54:30.823Z,160808.34
2022-11-03T00:57:34.631Z,160817.50
2022-11-03T01:00:38.670Z,160804.41
2022-11-03T01:04:03.013Z,160794.00
2022-11-03T01:07:07.657Z,160773.06
2022-11-03T01:10:11.794Z,160776.97
2022-11-03T01:13:15.537Z,160788.75
2022-11-03T01:16:20.125Z,160784.84
2022-11-03T01:19:25.328Z,160763.94
2022-11-03T01:22:29.368Z,160803.13
2022-11-03T01:25:35.638Z,160786.16
2022-11-03T01:28:41.506Z,160756.09
2022-11-03T01:31:45.646Z,160763.94
2022-11-03T01:34:49.776Z,160774.38
2022-11-03T01:37:54.407Z,160756.09
2022-11-03T01:40:59.006Z,160754.75
2022-11-03T01:44:09.060Z,160736.50
2022-11-03T01:47:23.193Z,160736.50
2022-11-03T01:50:27.344Z,160732.59
2022-11-03T01:53:31.748Z,160735.19
2022-11-03T01:56:40.291Z,160718.16
2022-11-03T01:59:46.560Z,160711.69
2022-11-03T02:02:50.791Z,160716.88
2022-11-03T02:05:56.213Z,160716.88
2022-11-03T02:09:04.651Z,160716.88
2022-11-03T02:12:10.056Z,160709.03
2022-11-03T02:15:16.661Z,160714.28
2022-11-03T02:18:25.660Z,160707.75
2022-11-03T02:21:59.500Z,160702.50
2022-11-03T02:25:14.640Z,160695.94
2022-11-03T02:28:21.165Z,160703.84
2022-11-03T02:31:38.013Z,160707.75
2022-11-03T02:34:49.162Z,160685.53
2022-11-03T02:37:58.297Z,160695.94
2022-11-03T02:41:07.499Z,160716.88
2022-11-03T02:44:15.446Z,160716.88
2022-11-03T02:47:20.566Z,160699.91
2022-11-03T02:50:29.447Z,160698.59
2022-11-03T02:53:38.399Z,160695.94
2022-11-03T02:56:50.096Z,160693.34
2022-11-03T03:00:03.638Z,160703.84
2022-11-03T03:03:13.865Z,160698.59
2022-11-03T03:06:28.923Z,160695.94
2022-11-03T03:09:40.258Z,160690.78
2022-11-03T03:12:49.464Z,160685.53
2022-11-03T03:16:06.436Z,160676.38
2022-11-03T03:19:32.020Z,160688.13
2022-11-03T03:22:55.500Z,160681.63
2022-11-03T03:26:13.859Z,160681.63
2022-11-03T03:29:23.488Z,160699.91
2022-11-03T03:32:34.674Z,160689.47
2022-11-03T03:35:41.548Z,160681.63
2022-11-03T03:38:49.719Z,160695.94
2022-11-03T03:41:55.139Z,160739.09
2022-11-03T03:45:00.689Z,160727.34
2022-11-03T03:48:06.387Z,160707.75
2022-11-03T03:51:12.617Z,160714.28
2022-11-03T03:54:16.802Z,160709.03
2022-11-03T03:57:23.345Z,160710.38
2022-11-03T04:00:27.216Z,160724.72
2022-11-03T04:03:31.113Z,160719.47
2022-11-03T04:06:35.411Z,160698.59
2022-11-03T04:09:39.538Z,160710.38
2022-11-03T04:13:03.363Z,160705.09
2022-11-03T04:16:27.568Z,160689.47
2022-11-03T04:19:50.461Z,160709.03
2022-11-03T04:22:54.516Z,160694.66
2022-11-03T04:25:59.232Z,160714.28
2022-11-03T04:29:06.740Z,160729.94
2022-11-03T04:32:16.217Z,160735.19
2022-11-03T04:35:24.133Z,160694.66
2022-11-03T04:38:29.333Z,160699.91
2022-11-03T04:41:33.538Z,160690.78
2022-11-03T04:44:37.769Z,160698.59
2022-11-03T04:47:41.957Z,160681.63
2022-11-03T04:50:47.352Z,160660.72
2022-11-03T04:53:55.215Z,160648.94
2022-11-03T04:56:59.399Z,160635.84
2022-11-03T05:00:03.823Z,160622.81
2022-11-03T05:03:14.830Z,160630.66
2022-11-03T05:06:21.520Z,160621.47
2022-11-03T05:09:30.361Z,160621.47
2022-11-03T05:12:34.561Z,160614.97
2022-11-03T05:15:43.262Z,160604.56
2022-11-03T05:18:49.656Z,160594.06
2022-11-03T05:21:56.831Z,160594.06
2022-11-03T05:25:03.691Z,160591.47
2022-11-03T05:28:30.091Z,160608.44
2022-11-03T05:31:36.701Z,160588.81
2022-11-03T05:34:47.543Z,160575.81
2022-11-03T05:37:51.275Z,160579.69
2022-11-03T05:41:03.417Z,160562.72
2022-11-03T05:44:36.855Z,160564.00
2022-11-03T05:47:44.187Z,160552.25
2022-11-03T05:50:48.402Z,160562.72
2022-11-03T05:53:55.738Z,160562.72
2022-11-03T05:57:01.162Z,160562.72
2022-11-03T06:00:08.410Z,160554.88
2022-11-03T06:03:19.385Z,160545.78
2022-11-03T06:06:32.350Z,160560.09
2022-11-03T06:09:36.495Z,160569.25
2022-11-03T06:12:40.694Z,160570.59
2022-11-03T06:15:47.586Z,160565.34
2022-11-03T06:18:51.939Z,160607.16
2022-11-03T06:21:59.074Z,160617.56
2022-11-03T06:25:19.896Z,160586.22
2022-11-03T06:28:29.808Z,160607.16
2022-11-03T06:31:34.269Z,160609.72
2022-11-03T06:34:49.271Z,160607.16
2022-11-03T06:37:53.920Z,160621.47
2022-11-03T06:40:58.782Z,160634.56
2022-11-03T06:44:20.211Z,160688.13
2022-11-03T06:47:26.467Z,160703.84
2022-11-03T06:50:34.434Z,160710.38
2022-11-03T06:53:38.442Z,160707.75
2022-11-03T06:56:42.408Z,160714.28
2022-11-03T06:59:46.664Z,160726.00
2022-11-03T07:02:59.435Z,160746.91
2022-11-03T07:06:24.634Z,160758.69
2022-11-03T07:09:29.080Z,160773.06
2022-11-03T07:12:33.407Z,160776.97
2022-11-03T07:15:39.721Z,160779.56
2022-11-03T07:18:44.732Z,160783.50
2022-11-03T07:21:56.272Z,160776.97
2022-11-03T07:25:03.731Z,160783.50
2022-11-03T07:28:10.331Z,160792.69
2022-11-03T07:31:20.041Z,160808.34
2022-11-03T07:34:27.553Z,160837.09
2022-11-03T07:37:31.978Z,160837.09
2022-11-03T07:40:37.363Z,160855.38
2022-11-03T07:43:41.439Z,160861.91
2022-11-03T07:46:45.445Z,160893.34
2022-11-03T07:49:49.363Z,160902.47
2022-11-03T07:52:53.409Z,160918.16
2022-11-03T07:55:58.773Z,160967.84
2022-11-03T07:59:08.753Z,161005.75
2022-11-03T08:02:34.344Z,161122.13
2022-11-03T08:05:38.440Z,161186.16
2022-11-03T08:08:42.450Z,161238.53
2022-11-03T08:11:46.852Z,161302.59
2022-11-03T08:14:51.026Z,161337.91
2022-11-03T08:17:56.315Z,161328.78
2022-11-03T08:21:00.727Z,161351.00
2022-11-03T08:24:05.591Z,161409.88
2022-11-03T08:27:09.802Z,161549.94
2022-11-03T08:30:13.894Z,161497.56
2022-11-03T08:33:19.038Z,161509.31
2022-11-03T08:36:23.166Z,161483.16
2022-11-03T08:39:27.197Z,161505.38
2022-11-03T08:42:30.946Z,161466.16
2022-11-03T08:45:35.143Z,161447.81
2022-11-03T08:48:39.132Z,161470.09
2022-11-03T08:51:44.591Z,161560.34
2022-11-03T08:54:48.782Z,161638.88
2022-11-03T08:57:52.532Z,161646.75
2022-11-03T09:00:56.575Z,161658.50
2022-11-03T09:04:00.939Z,161691.19
2022-11-03T09:07:05.068Z,161696.47
2022-11-03T09:13:21.764Z,161708.22
2022-11-03T09:16:25.544Z,161739.69
2022-11-03T09:19:29.277Z,161730.50
2022-11-03T09:22:33.398Z,161710.88
2022-11-03T09:25:38.617Z,161718.75
2022-11-03T09:28:42.687Z,161703.06
2022-11-03T09:31:46.628Z,161705.66
2022-11-03T09:34:50.713Z,161717.41
2022-11-03T09:37:54.963Z,161701.72
2022-11-03T09:40:59.842Z,161703.06
2022-11-03T09:44:04.199Z,161699.13
2022-11-03T09:47:15.902Z,161703.06
2022-11-03T09:50:20.757Z,161697.78
2022-11-03T09:53:24.643Z,161714.81
2022-11-03T09:56:28.386Z,161752.78
2022-11-03T09:59:32.538Z,161768.47
2022-11-03T10:02:38.819Z,161801.19
2022-11-03T10:05:45.007Z,161831.34
2022-11-03T10:08:49.468Z,161853.53
2022-11-03T10:11:54.693Z,161861.41
2022-11-03T10:14:59.449Z,161877.16
2022-11-03T10:18:03.450Z,161920.38
2022-11-03T10:21:16.265Z,161934.78
2022-11-03T10:24:20.361Z,161940.00
2022-11-03T10:27:25.694Z,161933.47
2022-11-03T10:30:32.572Z,161979.28
2022-11-03T10:33:50.291Z,161974.06
2022-11-03T10:37:12.655Z,162015.97
2022-11-03T10:40:47.878Z,162098.47
2022-11-03T10:44:19.195Z,162081.44
2022-11-03T10:47:33.690Z,162089.38
2022-11-03T10:50:40.188Z,162069.66
2022-11-03T10:53:44.224Z,162084.09
2022-11-03T10:56:50.737Z,162124.66
2022-11-03T10:59:55.824Z,162141.72
2022-11-03T11:03:00.883Z,162171.91
2022-11-03T11:06:04.654Z,162188.94
2022-11-03T11:09:11.422Z,162237.34
2022-11-03T11:12:22.466Z,162242.63
2022-11-03T11:15:44.946Z,162264.88
2022-11-03T11:18:48.601Z,162250.50
2022-11-03T11:21:52.486Z,162239.97
2022-11-03T11:24:57.477Z,162238.69
2022-11-03T11:28:11.809Z,162266.22
2022-11-03T11:32:05.685Z,162268.78
2022-11-03T11:35:30.256Z,162285.81
2022-11-03T11:38:51.346Z,162313.41
2022-11-03T11:42:07.758Z,162301.53
2022-11-03T11:45:12.068Z,162315.97
2022-11-03T11:48:19.306Z,162343.50
2022-11-03T11:51:24.636Z,162373.66
2022-11-03T11:54:34.920Z,162389.38
2022-11-03T11:57:39.251Z,162394.59
2022-11-03T12:00:59.756Z,162420.88
2022-11-03T12:04:14.047Z,162412.97
2022-11-03T12:07:32.843Z,162375.00
2022-11-03T12:10:36.712Z,162402.47
2022-11-03T12:13:51.210Z,162357.94
2022-11-03T12:16:56.743Z,162355.31
2022-11-03T12:20:00.543Z,162344.84
2022-11-03T12:23:04.457Z,162326.47
2022-11-03T12:26:19.101Z,162372.34
2022-11-03T12:29:23.208Z,162373.66
2022-11-03T12:32:33.392Z,162357.94
2022-11-03T12:35:38.593Z,162357.94
2022-11-03T12:38:42.396Z,162386.75
2022-11-03T12:41:46.484Z,162394.59
2022-11-03T12:44:50.792Z,162399.88
2022-11-03T12:47:54.774Z,162418.19
2022-11-03T12:50:58.501Z,162388.09
2022-11-03T12:54:02.279Z,162388.09
2022-11-03T12:57:06.453Z,162377.56
2022-11-03T13:00:10.996Z,162355.31
2022-11-03T13:03:15.091Z,162359.28
2022-11-03T13:06:18.828Z,162333.00
2022-11-03T13:09:23.158Z,162310.75
2022-11-03T13:12:33.773Z,162313.41
2022-11-03T13:15:37.639Z,162302.84
2022-11-03T13:18:41.790Z,162321.25
2022-11-03T13:21:45.718Z,162344.84
2022-11-03T13:24:49.556Z,162397.22
2022-11-03T13:27:56.980Z,162399.88
2022-11-03T13:31:01.203Z,162443.09
2022-11-03T13:34:05.740Z,162449.69
2022-11-03T13:37:09.763Z,162428.69
2022-11-03T13:40:35.769Z,162416.91
2022-11-03T13:43:39.780Z,162433.97
2022-11-03T13:46:43.715Z,162414.25
2022-11-03T14:00:02.043Z,162430.03
2022-11-03T14:06:33.389Z,162426.03
2022-11-03T14:12:46.026Z,162394.59
2022-11-03T14:15:50.248Z,162399.88
2022-11-03T14:18:54.468Z,162388.09
2022-11-03T14:21:58.603Z,162376.22
2022-11-03T14:25:03.083Z,162364.44
2022-11-03T14:28:07.325Z,162401.16
2022-11-03T14:31:11.415Z,162397.22
2022-11-03T14:34:15.354Z,162412.97
2022-11-03T14:37:20.020Z,162393.25
2022-11-03T14:40:43.272Z,162368.38
2022-11-03T14:43:47.358Z,162367.09
2022-11-03T14:46:51.148Z,162350.06
2022-11-03T14:49:54.909Z,162348.72
2022-11-03T14:52:59.974Z,162322.50
2022-11-03T14:56:04.345Z,162283.25
2022-11-03T14:59:08.471Z,162279.31
2022-11-03T15:02:12.233Z,162270.09
2022-11-03T15:05:35.079Z,162260.94
2022-11-03T15:08:39.351Z,162226.84
2022-11-03T15:11:44.234Z,162222.91
2022-11-03T15:14:48.440Z,162196.75
2022-11-03T15:17:52.259Z,162186.28
2022-11-03T15:20:55.774Z,162183.66
2022-11-03T15:27:23.779Z,162185.00
2022-11-03T15:30:27.957Z,162173.13
2022-11-03T15:33:32.039Z,162170.56
2022-11-03T15:36:36.402Z,162171.91
2022-11-03T15:39:40.536Z,162128.63
2022-11-03T15:42:44.393Z,162133.88
2022-11-03T15:45:48.238Z,162122.09
2022-11-03T15:48:54.346Z,162095.88
2022-11-03T15:51:58.305Z,162112.91
2022-11-03T15:55:02.615Z,162099.81
2022-11-03T15:58:07.161Z,162081.44
2022-11-03T16:01:11.540Z,162073.63
2022-11-03T16:04:16.222Z,162074.94
2022-11-03T16:07:20.092Z,162084.09
2022-11-03T16:10:23.887Z,162093.25
2022-11-03T16:13:27.701Z,162098.47
2022-11-03T16:16:31.764Z,162069.66
2022-11-03T16:19:35.855Z,162068.38
2022-11-03T16:22:39.859Z,162042.16
2022-11-03T16:25:44.226Z,162055.28
2022-11-03T16:28:48.098Z,162025.13
2022-11-03T16:31:52.053Z,162067.06
2022-11-03T16:34:56.050Z,162065.75
2022-11-03T16:37:59.943Z,162053.97
2022-11-03T16:41:04.063Z,162012.03
2022-11-03T16:44:07.862Z,162000.25
2022-11-03T16:47:11.850Z,162000.25
2022-11-03T16:50:19.136Z,162017.28
2022-11-03T16:53:22.899Z,161975.34
2022-11-03T16:56:26.918Z,161974.06
2022-11-03T16:59:30.833Z,162005.53
2022-11-03T17:02:35.004Z,161998.94
2022-11-03T17:05:39.280Z,161980.63
2022-11-03T17:08:58.242Z,161950.50
2022-11-03T17:12:02.498Z,161941.28
2022-11-03T17:15:07.159Z,161941.28
2022-11-03T17:18:11.149Z,161921.72
2022-11-03T17:21:14.960Z,161922.97
2022-11-03T17:24:18.898Z,161902.06
2022-11-03T17:27:27.495Z,161877.16
2022-11-03T17:30:34.353Z,161875.84
2022-11-03T17:33:39.098Z,161882.38
2022-11-03T17:36:43.237Z,161887.66
2022-11-03T17:39:47.341Z,161870.56
2022-11-03T17:42:51.582Z,161852.31
2022-11-03T17:45:55.665Z,161860.13
2022-11-03T17:48:59.493Z,161839.19
2022-11-03T17:52:03.710Z,161828.69
2022-11-03T17:55:17.647Z,161828.69
2022-11-03T17:58:32.442Z,161807.75
2022-11-03T18:01:37.647Z,161809.06
2022-11-03T18:04:41.961Z,161763.22
2022-11-03T18:07:45.811Z,161775.03
2022-11-03T18:10:53.163Z,161751.47
2022-11-03T18:13:57.434Z,161756.72
2022-11-03T18:17:01.801Z,161727.91
2022-11-03T18:20:15.867Z,161700.41
2022-11-03T18:23:24.158Z,161716.09
2022-11-03T18:26:28.294Z,161731.84
2022-11-03T18:29:32.334Z,161752.78
2022-11-03T18:32:37.479Z,161737.06
2022-11-03T18:35:41.596Z,161743.63
2022-11-03T18:38:46.736Z,161731.84
2022-11-03T18:41:51.658Z,161695.19
2022-11-03T18:45:01.440Z,161674.25
2022-11-03T18:48:07.452Z,161686.03
2022-11-03T18:51:11.208Z,161714.81
2022-11-03T18:57:26.381Z,161703.06
2022-11-03T19:00:31.121Z,161675.50
2022-11-03T19:03:35.277Z,161662.44
2022-11-03T19:06:39.194Z,161658.50
2022-11-03T19:09:43.916Z,161663.75
2022-11-03T19:12:48.414Z,161638.88
2022-11-03T19:15:53.180Z,161644.13
2022-11-03T19:18:57.349Z,161642.81
2022-11-03T19:22:01.591Z,161611.44
2022-11-03T19:25:06.862Z,161594.38
2022-11-03T19:28:14.022Z,161578.69
2022-11-03T19:31:22.885Z,161576.03
2022-11-03T19:34:30.304Z,161582.63
2022-11-03T19:37:36.125Z,161586.56
2022-11-03T19:41:02.208Z,161557.75
2022-11-03T19:44:10.468Z,161540.72
2022-11-03T19:47:18.926Z,161551.19
2022-11-03T19:50:36.285Z,161530.25
2022-11-03T19:53:45.947Z,161548.59
2022-11-03T19:56:51.299Z,161543.34
2022-11-03T19:59:58.865Z,161572.16
2022-11-03T20:03:03.199Z,161585.22
2022-11-03T20:06:08.171Z,161557.75
2022-11-03T20:09:18.344Z,161538.06
2022-11-03T20:12:22.264Z,161559.03
2022-11-03T20:15:26.205Z,161526.31
2022-11-03T20:18:31.004Z,161500.16
2022-11-03T20:21:35.050Z,161493.63
2022-11-03T20:24:39.298Z,161470.09
2022-11-03T20:27:42.846Z,161471.38
2022-11-03T20:30:47.375Z,161425.53
2022-11-03T20:33:51.417Z,161416.47
2022-11-03T20:36:55.329Z,161432.13
2022-11-03T20:39:58.930Z,161413.81
2022-11-03T20:43:02.871Z,161433.47
2022-11-03T20:46:20.819Z,161420.34
2022-11-03T20:49:25.121Z,161422.94
2022-11-03T20:52:29.128Z,161429.53
2022-11-03T20:55:34.809Z,161441.28
2022-11-03T20:58:38.774Z,161442.56
2022-11-03T21:01:43.688Z,161462.22
2022-11-03T21:04:48.031Z,161501.44
2022-11-03T21:07:52.358Z,161502.78
2022-11-03T21:11:16.571Z,161511.97
2022-11-03T21:14:27.639Z,161508.03
2022-11-03T21:17:50.453Z,161518.47
2022-11-03T21:20:54.710Z,161519.78
2022-11-03T21:23:58.762Z,161528.97
2022-11-03T21:27:02.436Z,161536.78
2022-11-03T21:30:07.672Z,161522.38
2022-11-03T21:33:12.161Z,161504.09
2022-11-03T21:36:16.195Z,161487.09
2022-11-03T21:39:20.119Z,161480.50
2022-11-03T21:42:42.955Z,161464.81
2022-11-03T21:45:47.052Z,161447.81
2022-11-03T21:49:09.560Z,161449.16
2022-11-03T21:52:16.830Z,161419.00
2022-11-03T21:55:21.211Z,161417.69
2022-11-03T21:58:25.292Z,161411.19
2022-11-03T22:01:29.447Z,161391.59
2022-11-03T22:04:33.860Z,161364.06
2022-11-03T22:07:38.031Z,161352.31
2022-11-03T22:10:41.890Z,161348.41
2022-11-03T22:13:45.833Z,161347.06
2022-11-03T22:16:49.857Z,161348.41
2022-11-03T22:20:13.114Z,161353.66
2022-11-03T22:23:36.062Z,161365.41
2022-11-03T22:26:55.365Z,161366.72
2022-11-03T22:30:18.655Z,161371.94
2022-11-03T22:33:22.806Z,161347.06
2022-11-03T22:36:28.414Z,161347.06
2022-11-03T22:39:50.934Z,161326.13
2022-11-03T22:43:24.172Z,161294.72
2022-11-03T22:46:28.002Z,161271.19
2022-11-03T22:49:32.031Z,161260.75
2022-11-03T22:52:35.885Z,161251.53
2022-11-03T22:55:39.616Z,161260.75
2022-11-03T22:58:43.839Z,161252.88
2022-11-03T23:01:48.010Z,161254.19
2022-11-03T23:04:52.116Z,161262.06
2022-11-03T23:07:56.318Z,161273.81
2022-11-03T23:11:09.107Z,161285.59
2022-11-03T23:14:13.340Z,161307.84
2022-11-03T23:17:17.340Z,161306.53
2022-11-03T23:20:39.974Z,161320.91
2022-11-03T23:24:02.550Z,161340.53
2022-11-03T23:27:07.738Z,161327.47
2022-11-03T23:30:12.118Z,161323.53
2022-11-03T23:33:16.006Z,161320.91
2022-11-03T23:36:20.579Z,161310.47
2022-11-03T23:39:24.570Z,161284.31
2022-11-03T23:42:28.330Z,161250.28
2022-11-03T23:45:54.057Z,161238.53
2022-11-03T23:48:58.786Z,161245.06
2022-11-03T23:52:02.894Z,161241.13
2022-11-03T23:55:07.396Z,161302.59
2022-11-03T23:58:21.594Z,161293.41
